Time;durP1;ratioP1;P1;durP2;ratioP2;P2;SDS_P1;SDS_P2;PMS_P1;PMS_P2;Temp;Humidity;BMP_temperature;BMP_pressure;BME280_temperature;BME280_humidity;BME280_pressure;Samples;Min_cycle;Max_cycle;Signal;HPM_P1;HPM_P2
2022/01/21 00:01:20;;;;;;;7.40;2.05;;;0.60;99.90;;;;;;5053789;28;20147;-86
2022/01/21 00:03:47;;;;;;;10.02;2.33;;;0.60;99.90;;;;;;5054007;28;20044;-87
2022/01/21 00:06:13;;;;;;;11.13;1.90;;;0.60;99.90;;;;;;5050595;28;20035;-86
2022/01/21 00:08:43;;;;;;;8.55;2.00;;;0.60;99.90;;;;;;5073005;28;20032;-86
2022/01/21 00:11:11;;;;;;;14.02;2.63;;;0.60;99.90;;;;;;5072236;28;20052;-87
2022/01/21 00:13:45;;;;;;;6.65;2.30;;;0.60;99.90;;;;;;5091524;28;20117;-85
2022/01/21 00:16:19;;;;;;;6.15;1.85;;;0.70;99.90;;;;;;5040270;28;20071;-86
2022/01/21 00:18:54;;;;;;;10.43;1.98;;;0.70;99.90;;;;;;5024072;28;20111;-86
2022/01/21 00:32:18;;;;;;;10.40;2.28;;;0.70;99.90;;;;;;5073412;28;20082;-85
2022/01/21 00:34:48;;;;;;;12.20;2.60;;;0.70;99.90;;;;;;5061427;28;20032;-86
2022/01/21 00:37:13;;;;;;;5.93;1.60;;;0.70;99.90;;;;;;5069841;28;20180;-87
2022/01/21 00:39:39;;;;;;;9.95;2.00;;;0.70;99.90;;;;;;5068045;28;20338;-87
2022/01/21 00:42:25;;;;;;;7.03;1.70;;;0.70;99.90;;;;;;5033898;28;20578;-87
2022/01/21 00:44:53;;;;;;;8.13;2.33;;;0.70;99.90;;;;;;5057056;28;20128;-87
2022/01/21 00:47:19;;;;;;;5.28;1.40;;;0.70;99.90;;;;;;5049943;28;20112;-86
2022/01/21 00:49:53;;;;;;;8.35;2.08;;;0.70;99.90;;;;;;5051764;28;20075;-87
2022/01/21 00:52:19;;;;;;;12.00;2.08;;;0.70;99.90;;;;;;5051963;28;20036;-87
2022/01/21 00:54:44;;;;;;;16.52;2.20;;;0.70;99.90;;;;;;5067374;28;20021;-87
2022/01/21 00:57:10;;;;;;;8.90;2.03;;;0.70;99.90;;;;;;5070241;28;20062;-87
2022/01/21 00:59:36;;;;;;;11.63;2.15;;;0.70;99.90;;;;;;5059049;28;20598;-87
2022/01/21 01:02:03;;;;;;;12.98;2.10;;;0.70;99.90;;;;;;5068833;28;20031;-86
2022/01/21 01:04:33;;;;;;;5.82;1.85;;;0.70;99.90;;;;;;5050186;28;20480;-87
2022/01/21 01:06:58;;;;;;;13.93;2.33;;;0.70;99.90;;;;;;5049644;28;20051;-87
2022/01/21 01:09:24;;;;;;;5.93;1.52;;;0.70;99.90;;;;;;5055527;28;20048;-86
2022/01/21 01:20:00;;;;;;;3.60;1.48;;;0.40;99.90;;;;;;5108283;28;20042;-87
2022/01/21 01:22:44;;;;;;;11.18;1.60;;;0.30;99.90;;;;;;5057291;28;20094;-86
2022/01/21 01:27:55;;;;;;;10.38;2.28;;;0.10;99.90;;;;;;5072186;28;20131;-87
2022/01/21 01:30:26;;;;;;;8.68;1.65;;;0.00;99.90;;;;;;5104667;28;20051;-87
2022/01/21 01:32:56;;;;;;;3.80;1.58;;;0.00;99.90;;;;;;5071884;28;20074;-86
2022/01/21 01:35:23;;;;;;;4.88;1.52;;;-0.10;99.90;;;;;;5037746;28;20021;-87
2022/01/21 01:40:34;;;;;;;8.77;2.35;;;-0.20;99.90;;;;;;5078982;28;20032;-85
2022/01/21 01:51:17;;;;;;;5.70;1.92;;;-0.40;99.90;;;;;;5065732;28;20043;-87
2022/01/21 01:53:54;;;;;;;8.13;2.45;;;-0.30;99.90;;;;;;5047616;28;20088;-85
2022/01/21 01:56:25;;;;;;;6.25;2.08;;;-0.30;99.90;;;;;;5032115;28;20619;-87
2022/01/21 01:58:57;;;;;;;5.68;1.60;;;-0.30;99.90;;;;;;5076320;28;20411;-87
2022/01/21 02:01:23;;;;;;;11.80;1.88;;;-0.40;99.90;;;;;;5051441;28;20036;-85
2022/01/21 02:03:58;;;;;;;6.20;2.10;;;-0.30;99.90;;;;;;5033319;28;20039;-87
2022/01/21 02:06:24;;;;;;;7.60;1.77;;;-0.30;99.90;;;;;;5046240;28;20427;-86
2022/01/21 02:08:50;;;;;;;14.75;2.50;;;-0.30;99.90;;;;;;5082287;28;20116;-86
2022/01/21 02:11:15;;;;;;;17.05;2.10;;;-0.30;99.90;;;;;;5046119;28;20036;-86
2022/01/21 02:13:55;;;;;;;9.35;1.67;;;-0.30;99.90;;;;;;5049510;28;20654;-87
2022/01/21 02:21:43;;;;;;;3.50;1.70;;;-0.10;99.90;;;;;;5067971;28;20042;-85
2022/01/21 02:24:31;;;;;;;11.23;2.38;;;-0.10;99.90;;;;;;5039538;28;20101;-87
2022/01/21 02:26:59;;;;;;;9.82;1.70;;;-0.10;99.90;;;;;;5064627;28;20120;-87
2022/01/21 02:29:28;;;;;;;10.45;1.73;;;-0.10;99.90;;;;;;5061137;28;20085;-87
2022/01/21 02:31:59;;;;;;;6.47;1.48;;;-0.10;99.90;;;;;;5044907;28;20112;-87
2022/01/21 02:34:30;;;;;;;8.88;1.83;;;-0.20;99.90;;;;;;5080462;28;20024;-85
2022/01/21 02:36:55;;;;;;;5.22;1.63;;;-0.20;99.90;;;;;;5049276;28;20481;-87
2022/01/21 02:39:24;;;;;;;5.90;1.55;;;-0.20;99.90;;;;;;5028914;28;20024;-87
2022/01/21 02:41:50;;;;;;;10.10;1.70;;;-0.30;99.90;;;;;;5079032;28;20036;-87
2022/01/21 02:44:22;;;;;;;4.13;1.70;;;-0.30;99.90;;;;;;5028097;28;20041;-86
2022/01/21 02:46:55;;;;;;;6.95;1.95;;;-0.30;99.90;;;;;;5060672;28;20044;-88
2022/01/21 02:49:20;;;;;;;5.07;1.63;;;-0.30;99.90;;;;;;5069872;28;20024;-87
2022/01/21 02:51:46;;;;;;;13.82;2.30;;;-0.30;99.90;;;;;;5047466;28;20093;-88
2022/01/21 02:54:11;;;;;;;9.68;1.67;;;-0.40;99.90;;;;;;5044706;28;20020;-86
2022/01/21 02:56:39;;;;;;;16.50;1.90;;;-0.40;99.90;;;;;;5053046;28;20032;-87
2022/01/21 02:59:09;;;;;;;7.57;1.15;;;-0.50;99.90;;;;;;5065829;28;20050;-86
2022/01/21 03:01:37;;;;;;;9.45;1.83;;;-0.50;99.90;;;;;;5053153;28;20044;-86
2022/01/21 03:04:06;;;;;;;6.53;1.70;;;-0.50;99.90;;;;;;5060471;28;20098;-86
2022/01/21 03:06:33;;;;;;;7.93;2.17;;;-0.50;99.90;;;;;;5072329;28;20032;-86
2022/01/21 03:08:59;;;;;;;15.68;2.22;;;-0.60;99.90;;;;;;5059789;28;20029;-86
2022/01/21 03:11:31;;;;;;;10.32;1.65;;;-0.60;99.90;;;;;;5042928;28;20100;-86
2022/01/21 03:14:00;;;;;;;15.95;2.53;;;-0.70;99.90;;;;;;5059833;28;20108;-86
2022/01/21 03:16:26;;;;;;;14.15;1.80;;;-0.70;99.90;;;;;;5032717;28;20559;-86
2022/01/21 03:18:52;;;;;;;8.63;1.77;;;-0.70;99.90;;;;;;5059749;28;20021;-86
2022/01/21 03:21:18;;;;;;;8.95;1.70;;;-0.80;99.90;;;;;;5060126;28;20028;-86
2022/01/21 03:23:47;;;;;;;4.70;1.95;;;-0.80;99.90;;;;;;5073329;28;20039;-86
2022/01/21 03:26:29;;;;;;;8.10;2.15;;;-0.80;99.90;;;;;;5058951;28;20056;-87
2022/01/21 03:28:58;;;;;;;4.75;1.80;;;-0.90;99.90;;;;;;5060602;28;20492;-87
2022/01/21 03:31:27;;;;;;;10.25;1.90;;;-0.90;99.90;;;;;;5070022;28;20039;-86
2022/01/21 03:33:53;;;;;;;15.57;1.95;;;-0.90;99.90;;;;;;5044418;28;20029;-87
2022/01/21 03:36:22;;;;;;;3.80;1.75;;;-0.90;99.90;;;;;;5055209;28;20043;-86
2022/01/21 03:38:49;;;;;;;6.20;1.83;;;-0.90;99.90;;;;;;5054312;28;20082;-86
2022/01/21 03:41:15;;;;;;;14.75;2.35;;;-0.90;99.90;;;;;;5035025;28;20040;-87
2022/01/21 03:43:40;;;;;;;7.60;2.08;;;-0.90;99.90;;;;;;5051493;28;20025;-85
2022/01/21 03:46:07;;;;;;;10.30;2.05;;;-1.00;99.90;;;;;;5067054;28;20496;-86
2022/01/21 03:48:39;;;;;;;11.80;2.38;;;-1.00;99.90;;;;;;5037666;28;20029;-86
2022/01/21 03:51:05;;;;;;;12.75;3.00;;;-1.00;99.90;;;;;;5054135;28;20504;-86
2022/01/21 03:53:30;;;;;;;13.13;2.55;;;-1.00;99.90;;;;;;5057749;28;20032;-86
2022/01/21 03:55:57;;;;;;;8.43;1.92;;;-1.00;99.90;;;;;;5022881;28;20025;-86
2022/01/21 03:58:23;;;;;;;12.40;2.35;;;-1.00;99.90;;;;;;5037563;28;20029;-87
2022/01/21 04:00:58;;;;;;;7.05;1.88;;;-1.00;99.90;;;;;;5022546;28;20036;-86
2022/01/21 04:03:28;;;;;;;10.43;2.38;;;-1.00;99.90;;;;;;5046058;28;20047;-87
2022/01/21 04:05:54;;;;;;;11.70;1.70;;;-1.00;99.90;;;;;;5057731;28;20028;-86
2022/01/21 04:08:20;;;;;;;6.18;1.80;;;-1.00;99.90;;;;;;5044788;28;20375;-86
2022/01/21 04:10:48;;;;;;;11.30;2.63;;;-1.00;99.90;;;;;;5059213;28;20071;-86
2022/01/21 04:13:16;;;;;;;8.73;1.92;;;-1.00;99.90;;;;;;5044848;28;20085;-86
2022/01/21 04:15:54;;;;;;;8.15;2.00;;;-1.00;99.90;;;;;;5037768;28;20066;-86
2022/01/21 04:18:23;;;;;;;7.10;2.00;;;-1.00;99.90;;;;;;5070992;28;20035;-86
2022/01/21 04:20:50;;;;;;;5.95;1.67;;;-1.00;99.90;;;;;;5089345;28;20031;-86
2022/01/21 04:23:18;;;;;;;9.38;2.25;;;-1.00;99.90;;;;;;5083330;22;20071;-84
2022/01/21 04:25:51;;;;;;;9.10;2.10;;;-1.00;99.90;;;;;;5054943;28;20046;-84
2022/01/21 04:28:16;;;;;;;7.43;2.35;;;-1.00;99.90;;;;;;5083588;28;20483;-84
2022/01/21 04:30:42;;;;;;;14.77;2.10;;;-1.00;99.90;;;;;;5035373;28;20044;-84
2022/01/21 04:33:08;;;;;;;6.97;2.10;;;-1.00;99.90;;;;;;5051206;28;20108;-84
2022/01/21 04:35:35;;;;;;;5.63;1.73;;;-1.00;99.90;;;;;;5052377;28;20489;-84
2022/01/21 04:38:04;;;;;;;6.35;2.00;;;-1.00;99.90;;;;;;5034449;28;20063;-84
2022/01/21 04:40:41;;;;;;;8.32;1.80;;;-1.00;99.90;;;;;;5052435;28;20029;-84
2022/01/21 04:48:38;;;;;;;11.32;2.22;;;-0.90;99.90;;;;;;5069118;28;20079;-84
2022/01/21 04:51:20;;;;;;;3.15;2.05;;;-0.90;99.90;;;;;;5034777;28;20052;-84
2022/01/21 04:53:47;;;;;;;6.00;2.45;;;-0.80;99.90;;;;;;5025935;28;20129;-84
2022/01/21 04:56:15;;;;;;;12.15;2.70;;;-0.80;99.90;;;;;;5043606;28;20032;-84
2022/01/21 04:58:42;;;;;;;12.32;2.13;;;-0.80;99.90;;;;;;5067808;28;20025;-84
2022/01/21 05:01:09;;;;;;;7.10;2.08;;;-0.80;99.90;;;;;;5031924;28;20501;-84
2022/01/21 05:03:37;;;;;;;7.03;1.80;;;-0.70;99.90;;;;;;5024891;28;20040;-84
2022/01/21 05:06:03;;;;;;;3.67;2.00;;;-0.70;99.90;;;;;;5049858;28;20569;-84
2022/01/21 05:08:50;;;;;;;13.15;2.60;;;-0.70;99.90;;;;;;5014350;28;20037;-84
2022/01/21 05:11:22;;;;;;;9.35;1.95;;;-0.70;99.90;;;;;;5060433;28;20529;-84
2022/01/21 05:14:09;;;;;;;6.68;2.00;;;-0.60;99.90;;;;;;5040413;28;20025;-84
2022/01/21 05:16:38;;;;;;;6.03;2.40;;;-0.60;99.90;;;;;;5031467;28;20025;-83
2022/01/21 05:19:15;;;;;;;8.65;1.98;;;-0.60;99.90;;;;;;5016003;28;20032;-84
2022/01/21 05:21:44;;;;;;;7.63;2.53;;;-0.60;99.90;;;;;;5031554;28;20028;-84
2022/01/21 05:24:10;;;;;;;12.18;1.85;;;-0.60;99.90;;;;;;5023260;28;20127;-84
2022/01/21 05:26:52;;;;;;;13.00;2.45;;;-0.50;99.90;;;;;;5033575;28;20479;-83
2022/01/21 05:29:19;;;;;;;4.70;2.00;;;-0.60;99.90;;;;;;5017251;28;20068;-84
2022/01/21 05:31:50;;;;;;;7.25;2.42;;;-0.60;99.90;;;;;;5031774;28;20028;-84
2022/01/21 05:34:15;;;;;;;19.17;2.25;;;-0.60;99.90;;;;;;5051665;28;20519;-84
2022/01/21 05:36:41;;;;;;;5.28;1.60;;;-0.50;99.90;;;;;;5032603;28;20032;-83
2022/01/21 05:39:20;;;;;;;4.47;2.00;;;-0.60;99.90;;;;;;5008524;28;20525;-84
2022/01/21 05:41:51;;;;;;;8.23;2.22;;;-0.60;99.90;;;;;;5015089;28;20413;-84
2022/01/21 05:47:03;;;;;;;4.03;1.98;;;-0.60;99.90;;;;;;5063188;28;20031;-83
2022/01/21 05:49:32;;;;;;;8.07;1.55;;;-0.50;99.90;;;;;;5049339;28;20505;-85
2022/01/21 05:52:16;;;;;;;8.13;2.25;;;-0.60;99.90;;;;;;5030408;28;20040;-83
2022/01/21 05:54:44;;;;;;;10.48;1.85;;;-0.50;99.90;;;;;;5048252;28;20025;-84
2022/01/21 05:57:19;;;;;;;7.05;2.20;;;-0.50;99.90;;;;;;5039762;28;20029;-84
2022/01/21 05:59:45;;;;;;;11.77;2.50;;;-0.60;99.90;;;;;;5031477;28;20031;-84
2022/01/21 06:02:12;;;;;;;13.40;2.17;;;-0.60;99.90;;;;;;5020951;28;20024;-84
2022/01/21 06:04:46;;;;;;;8.13;2.05;;;-0.60;99.90;;;;;;5055115;28;20021;-84
2022/01/21 06:07:12;;;;;;;4.72;2.08;;;-0.60;99.90;;;;;;5037336;28;20028;-82
2022/01/21 06:09:38;;;;;;;4.57;2.30;;;-0.60;99.90;;;;;;5055128;28;20032;-83
2022/01/21 06:12:10;;;;;;;6.95;1.90;;;-0.60;99.90;;;;;;5052975;28;20535;-83
2022/01/21 06:14:37;;;;;;;8.43;2.55;;;-0.50;99.90;;;;;;5025766;28;20037;-83
2022/01/21 06:17:03;;;;;;;8.25;1.98;;;-0.50;99.90;;;;;;5052758;28;20024;-83
2022/01/21 06:19:29;;;;;;;8.45;2.47;;;-0.50;99.90;;;;;;5051735;28;20032;-83
2022/01/21 06:21:55;;;;;;;9.50;3.25;;;-0.50;99.90;;;;;;5038080;28;20040;-83
2022/01/21 06:24:24;;;;;;;7.40;2.20;;;-0.50;99.90;;;;;;5034587;28;20404;-83
2022/01/21 06:26:53;;;;;;;8.97;2.73;;;-0.50;99.90;;;;;;5040568;28;20823;-83
2022/01/21 06:29:19;;;;;;;7.75;2.85;;;-0.40;99.90;;;;;;5025603;28;20032;-83
2022/01/21 06:31:44;;;;;;;8.15;2.78;;;-0.40;99.90;;;;;;5006739;28;20044;-83
2022/01/21 06:34:10;;;;;;;18.88;4.30;;;-0.40;99.90;;;;;;5038620;28;20028;-83
2022/01/21 06:36:36;;;;;;;16.10;3.90;;;-0.40;99.90;;;;;;5021305;28;20047;-83
2022/01/21 06:39:05;;;;;;;14.50;3.47;;;-0.40;99.90;;;;;;5037656;28;20029;-83
2022/01/21 06:41:30;;;;;;;13.40;3.42;;;-0.40;99.90;;;;;;5035933;28;20060;-83
2022/01/21 06:43:56;;;;;;;8.00;3.35;;;-0.40;99.90;;;;;;5037836;28;20028;-83
2022/01/21 06:46:21;;;;;;;8.25;3.88;;;-0.40;99.90;;;;;;5011379;28;20121;-83
2022/01/21 06:48:47;;;;;;;8.75;3.60;;;-0.40;99.90;;;;;;5045218;28;20036;-83
2022/01/21 06:51:12;;;;;;;10.82;3.97;;;-0.40;99.90;;;;;;5050914;28;20021;-82
2022/01/21 06:53:38;;;;;;;27.55;7.15;;;-0.40;99.90;;;;;;5032856;28;20040;-82
2022/01/21 06:56:10;;;;;;;25.38;7.13;;;-0.30;99.90;;;;;;5029213;28;20121;-83
2022/01/21 06:58:36;;;;;;;24.45;5.68;;;-0.30;99.90;;;;;;5010144;28;20115;-83
2022/01/21 07:01:02;;;;;;;24.20;5.40;;;-0.40;99.90;;;;;;5064715;28;20120;-83
2022/01/21 07:03:27;;;;;;;22.70;5.50;;;-0.40;99.90;;;;;;5047055;28;20484;-83
2022/01/21 07:05:55;;;;;;;22.38;4.90;;;-0.30;99.90;;;;;;5020882;28;20056;-83
2022/01/21 07:08:22;;;;;;;15.75;5.07;;;-0.30;99.90;;;;;;5019141;28;20070;-82
2022/01/21 07:10:47;;;;;;;15.82;3.30;;;-0.40;99.90;;;;;;5048366;28;20063;-83
2022/01/21 07:13:13;;;;;;;14.75;4.10;;;-0.40;99.90;;;;;;5049350;28;20544;-82
2022/01/21 07:15:39;;;;;;;13.23;3.63;;;-0.30;99.90;;;;;;5053166;28;20039;-82
2022/01/21 07:18:05;;;;;;;11.05;4.32;;;-0.30;99.90;;;;;;5042075;28;20037;-83
2022/01/21 07:20:37;;;;;;;19.67;5.88;;;-0.30;99.90;;;;;;5017499;28;20064;-83
2022/01/21 07:23:08;;;;;;;20.00;6.80;;;-0.30;99.90;;;;;;5033202;28;20043;-82
2022/01/21 07:25:38;;;;;;;22.88;6.53;;;-0.30;99.90;;;;;;5047567;28;20029;-83
2022/01/21 07:28:09;;;;;;;12.00;4.18;;;-0.30;99.90;;;;;;5072075;28;20020;-83
2022/01/21 07:30:37;;;;;;;21.30;3.80;;;-0.30;99.90;;;;;;5047441;28;20040;-82
2022/01/21 07:33:03;;;;;;;9.00;2.30;;;-0.30;99.90;;;;;;5033414;28;20029;-82
2022/01/21 07:35:29;;;;;;;10.35;3.33;;;-0.20;99.90;;;;;;5063597;28;20386;-82
2022/01/21 07:37:54;;;;;;;4.93;2.20;;;-0.20;99.90;;;;;;5025390;28;20029;-82
2022/01/21 07:40:23;;;;;;;12.20;2.50;;;-0.20;99.90;;;;;;5033503;28;20036;-82
2022/01/21 07:42:52;;;;;;;10.70;2.78;;;-0.20;99.90;;;;;;5016599;28;20029;-82
2022/01/21 07:45:17;;;;;;;5.60;2.10;;;-0.10;99.90;;;;;;5032921;28;20024;-83
2022/01/21 07:47:43;;;;;;;10.55;2.60;;;-0.10;99.90;;;;;;5016173;28;20051;-82
2022/01/21 07:50:09;;;;;;;13.15;2.20;;;-0.10;99.90;;;;;;5043956;28;20028;-83
2022/01/21 07:52:34;;;;;;;4.53;2.00;;;-0.10;99.90;;;;;;5052882;28;20040;-82
2022/01/21 07:55:10;;;;;;;13.07;2.25;;;0.00;99.90;;;;;;5036325;28;20035;-83
2022/01/21 07:57:40;;;;;;;9.65;2.88;;;0.00;99.90;;;;;;5070002;28;20059;-83
2022/01/21 08:00:09;;;;;;;9.60;2.47;;;0.00;99.90;;;;;;5011064;28;20045;-83
2022/01/21 08:02:37;;;;;;;8.48;2.67;;;0.00;99.90;;;;;;5031813;28;20436;-83
2022/01/21 08:05:06;;;;;;;11.48;2.80;;;0.10;99.90;;;;;;5051883;28;20481;-83
2022/01/21 08:07:32;;;;;;;6.75;2.35;;;0.10;99.90;;;;;;5032409;28;20128;-82
2022/01/21 08:10:16;;;;;;;14.00;2.42;;;0.10;99.90;;;;;;5037098;28;20527;-82
2022/01/21 08:12:47;;;;;;;10.90;2.00;;;0.10;99.90;;;;;;5070138;28;20100;-82
2022/01/21 08:15:13;;;;;;;3.72;2.33;;;0.10;99.90;;;;;;5034589;28;20034;-83
2022/01/21 08:17:38;;;;;;;7.93;2.17;;;0.20;99.90;;;;;;5052029;28;20033;-83
2022/01/21 08:20:07;;;;;;;12.77;2.38;;;0.20;99.90;;;;;;5036124;28;20380;-83
2022/01/21 08:22:33;;;;;;;5.85;2.30;;;0.20;99.90;;;;;;5030492;28;20040;-82
2022/01/21 08:25:08;;;;;;;10.07;2.35;;;0.20;99.90;;;;;;5015803;28;20584;-83
2022/01/21 08:27:37;;;;;;;10.10;2.50;;;0.20;99.90;;;;;;5049511;28;20098;-83
2022/01/21 08:30:05;;;;;;;8.70;2.28;;;0.20;99.90;;;;;;5020390;28;20089;-83
2022/01/21 08:32:31;;;;;;;5.03;1.75;;;0.30;99.90;;;;;;5029820;28;20029;-83
2022/01/21 08:34:56;;;;;;;15.35;3.30;;;0.30;99.90;;;;;;5051301;28;20033;-83
2022/01/21 08:37:23;;;;;;;9.48;1.90;;;0.30;99.90;;;;;;5031696;28;20060;-83
2022/01/21 08:39:52;;;;;;;11.45;2.95;;;0.30;99.90;;;;;;5032274;28;20025;-83
2022/01/21 08:42:17;;;;;;;6.40;1.83;;;0.40;99.90;;;;;;5016956;28;20029;-83
2022/01/21 08:44:43;;;;;;;8.15;1.88;;;0.40;99.90;;;;;;5031485;28;20063;-83
2022/01/21 08:47:09;;;;;;;6.50;1.88;;;0.40;99.90;;;;;;5035514;28;20113;-83
2022/01/21 08:49:35;;;;;;;7.78;2.30;;;0.50;99.90;;;;;;5035700;28;20099;-82
2022/01/21 08:52:01;;;;;;;8.40;2.40;;;0.60;99.90;;;;;;5034757;28;20040;-83
2022/01/21 08:54:30;;;;;;;15.32;1.92;;;0.60;99.90;;;;;;5016123;28;20025;-83
2022/01/21 08:56:57;;;;;;;10.27;1.93;;;0.70;99.90;;;;;;5031614;28;20540;-83
2022/01/21 08:59:23;;;;;;;17.13;2.72;;;0.70;99.90;;;;;;5033651;28;20048;-83
2022/01/21 09:01:49;;;;;;;10.18;2.20;;;0.80;99.90;;;;;;5033993;28;20189;-83
2022/01/21 09:04:18;;;;;;;13.27;2.05;;;0.80;99.90;;;;;;5051761;28;20035;-83
2022/01/21 09:06:46;;;;;;;9.55;2.50;;;1.00;99.90;;;;;;5051974;28;20032;-82
2022/01/21 09:09:12;;;;;;;16.15;2.40;;;1.00;99.90;;;;;;5051913;28;20089;-83
2022/01/21 09:11:45;;;;;;;12.07;2.00;;;1.10;99.90;;;;;;5069509;28;20544;-83
2022/01/21 09:14:11;;;;;;;14.00;2.60;;;1.20;99.90;;;;;;5033329;28;20546;-83
2022/01/21 09:16:38;;;;;;;10.75;2.47;;;1.30;99.90;;;;;;5031180;28;20025;-83
2022/01/21 09:19:04;;;;;;;10.50;1.98;;;1.40;99.90;;;;;;5059306;28;20462;-83
2022/01/21 09:21:36;;;;;;;5.78;2.20;;;1.40;99.90;;;;;;5052144;28;20443;-83
2022/01/21 09:24:04;;;;;;;10.77;2.28;;;1.40;99.90;;;;;;5042329;28;20040;-83
2022/01/21 09:26:31;;;;;;;8.77;2.35;;;1.50;99.90;;;;;;5030736;28;20024;-82
2022/01/21 09:28:59;;;;;;;8.13;2.00;;;1.50;99.90;;;;;;5034456;28;20558;-83
2022/01/21 09:31:25;;;;;;;5.70;1.67;;;1.50;99.90;;;;;;5041043;28;20047;-83
2022/01/21 09:33:51;;;;;;;8.07;2.10;;;1.60;99.90;;;;;;5050341;28;20028;-83
2022/01/21 09:36:19;;;;;;;6.72;2.00;;;1.50;99.90;;;;;;5015407;28;20485;-83
2022/01/21 09:38:45;;;;;;;9.82;1.98;;;1.50;99.90;;;;;;5034515;28;20260;-83
2022/01/21 09:41:12;;;;;;;7.78;2.20;;;1.60;99.90;;;;;;5035587;28;20031;-83
2022/01/21 09:43:40;;;;;;;12.68;2.40;;;1.60;99.90;;;;;;5042786;28;20042;-83
2022/01/21 09:46:07;;;;;;;7.05;2.20;;;1.50;99.90;;;;;;5054419;28;20029;-83
2022/01/21 09:48:50;;;;;;;12.65;2.70;;;1.50;99.90;;;;;;5048616;28;20565;-83
2022/01/21 09:51:17;;;;;;;7.38;2.20;;;1.50;99.90;;;;;;5020953;28;20037;-83
2022/01/21 09:53:46;;;;;;;10.23;2.63;;;1.60;99.90;;;;;;5035281;28;20468;-83
2022/01/21 09:56:14;;;;;;;16.63;2.55;;;1.70;99.90;;;;;;5035027;28;20068;-83
2022/01/21 09:58:46;;;;;;;13.32;2.35;;;1.80;99.90;;;;;;5034959;28;20025;-83
2022/01/21 10:01:13;;;;;;;3.05;1.85;;;1.90;99.90;;;;;;5054062;28;20032;-83
2022/01/21 10:03:43;;;;;;;11.32;2.60;;;2.00;99.90;;;;;;5055868;28;20040;-84
2022/01/21 10:06:10;;;;;;;5.65;2.03;;;2.10;99.90;;;;;;5039660;28;20039;-83
2022/01/21 10:08:38;;;;;;;7.90;2.35;;;2.20;99.90;;;;;;5044095;28;20037;-83
2022/01/21 10:11:04;;;;;;;6.00;2.13;;;2.20;99.90;;;;;;5054237;28;20400;-84
2022/01/21 10:13:31;;;;;;;7.97;2.08;;;2.30;99.90;;;;;;5056307;28;20033;-83
2022/01/21 10:15:57;;;;;;;5.80;2.15;;;2.30;99.90;;;;;;5039037;28;20040;-83
2022/01/21 10:18:23;;;;;;;8.95;2.20;;;2.30;99.90;;;;;;5018929;28;20032;-83
2022/01/21 10:21:10;;;;;;;7.63;1.98;;;2.40;99.90;;;;;;5020504;28;20045;-83
2022/01/21 10:23:44;;;;;;;9.45;2.05;;;2.50;99.90;;;;;;5051447;28;20048;-83
2022/01/21 10:26:16;;;;;;;13.60;3.38;;;2.50;99.90;;;;;;5037243;28;20086;-83
2022/01/21 10:28:43;;;;;;;6.28;2.08;;;2.60;99.90;;;;;;5073178;28;20063;-83
2022/01/21 10:31:16;;;;;;;10.73;2.45;;;2.60;99.90;;;;;;5037812;28;20131;-83
2022/01/21 10:34:08;;;;;;;8.32;2.40;;;2.70;99.90;;;;;;5021997;28;20374;-83
2022/01/21 10:36:44;;;;;;;14.35;3.03;;;2.70;99.90;;;;;;5016295;28;20128;-83
2022/01/21 10:39:18;;;;;;;10.32;2.92;;;2.80;99.90;;;;;;5019752;28;20025;-83
2022/01/21 10:41:53;;;;;;;11.07;2.75;;;2.80;99.90;;;;;;5020278;28;20057;-83
2022/01/21 10:44:20;;;;;;;10.85;2.35;;;2.80;99.90;;;;;;5072105;28;20031;-83
2022/01/21 10:47:03;;;;;;;10.73;3.08;;;2.80;99.90;;;;;;5036453;28;20373;-83
2022/01/21 10:49:29;;;;;;;8.77;2.40;;;2.90;99.90;;;;;;5053966;28;20059;-83
2022/01/21 10:51:59;;;;;;;9.55;2.63;;;2.80;99.90;;;;;;5038278;28;20063;-83
2022/01/21 10:54:28;;;;;;;16.02;2.85;;;2.90;99.90;;;;;;5053313;28;20024;-83
2022/01/21 10:57:17;;;;;;;16.50;3.33;;;2.90;99.90;;;;;;5034784;28;20033;-83
2022/01/21 10:59:51;;;;;;;4.63;2.22;;;3.00;99.90;;;;;;5040873;28;20025;-83
2022/01/21 11:02:33;;;;;;;11.93;2.05;;;3.10;99.90;;;;;;5051650;28;20587;-83
2022/01/21 11:05:03;;;;;;;10.07;2.00;;;3.10;99.90;;;;;;5053960;28;20025;-83
2022/01/21 11:07:54;;;;;;;7.00;1.80;;;3.10;99.90;;;;;;5060992;28;20024;-83
2022/01/21 11:10:33;;;;;;;6.40;2.22;;;3.10;99.90;;;;;;5061865;28;20194;-83
2022/01/21 11:12:59;;;;;;;15.32;2.42;;;3.10;99.90;;;;;;5053349;28;20021;-83
2022/01/21 11:15:25;;;;;;;19.08;2.28;;;3.10;99.90;;;;;;5048087;28;20124;-83
2022/01/21 11:18:00;;;;;;;12.77;3.90;;;3.10;99.90;;;;;;5033345;28;20504;-83
2022/01/21 11:20:39;;;;;;;7.40;2.58;;;3.10;99.90;;;;;;5027860;28;20131;-83
2022/01/21 11:23:12;;;;;;;12.18;2.28;;;3.10;99.90;;;;;;5034754;28;20041;-83
2022/01/21 11:25:58;;;;;;;11.15;2.33;;;3.10;99.90;;;;;;5033374;28;20551;-83
2022/01/21 11:28:48;;;;;;;7.03;1.73;;;3.10;99.90;;;;;;5032807;28;20028;-83
2022/01/21 11:31:15;;;;;;;;;;;3.10;99.90;;;;;;5051556;28;20470;-82
2022/01/21 11:33:40;;;;;;;6.40;1.75;;;3.10;99.90;;;;;;5052294;28;19935;-83
2022/01/21 11:36:07;;;;;;;6.45;2.05;;;3.10;99.90;;;;;;5019331;28;20033;-83
2022/01/21 11:38:38;;;;;;;9.88;2.03;;;3.10;99.90;;;;;;5033087;28;20551;-83
2022/01/21 11:41:08;;;;;;;10.73;2.65;;;3.10;99.90;;;;;;5033212;28;20041;-82
2022/01/21 11:43:36;;;;;;;7.68;2.47;;;3.10;99.90;;;;;;5050987;28;20037;-85
2022/01/21 11:46:40;;;;;;;11.45;2.58;;;3.10;99.90;;;;;;5036674;28;20409;-84
2022/01/21 11:48:55;;;;;;;9.77;2.00;;;3.10;99.90;;;;;;5055863;28;20461;-84
2022/01/21 11:51:31;;;;;;;7.43;2.05;;;3.10;99.90;;;;;;5039558;28;20505;-85
2022/01/21 11:54:01;;;;;;;6.93;2.00;;;3.10;99.90;;;;;;5032738;28;20078;-84
2022/01/21 11:57:02;;;;;;;12.68;3.05;;;3.10;99.90;;;;;;5032995;28;20477;-84
2022/01/21 11:59:40;;;;;;;;;;;3.10;99.90;;;;;;5019651;28;20082;-84
2022/01/21 12:02:15;;;;;;;12.80;2.53;;;3.10;99.90;;;;;;5037915;28;19915;-84
2022/01/21 12:04:59;;;;;;;12.07;2.25;;;3.20;99.90;;;;;;5070874;28;20039;-84
2022/01/21 12:07:40;;;;;;;7.38;2.25;;;3.10;99.90;;;;;;5052066;28;20021;-84
2022/01/21 12:10:11;;;;;;;17.58;2.42;;;3.10;99.90;;;;;;5046612;28;20021;-84
2022/01/21 12:15:33;;;;;;;6.80;1.75;;;2.90;99.90;;;;;;5070426;28;20059;-84
2022/01/21 12:18:30;;;;;;;8.65;1.60;;;2.90;99.90;;;;;;5052252;28;20588;-84
2022/01/21 12:21:00;;;;;;;5.65;2.20;;;2.90;99.90;;;;;;5054769;28;20485;-84
2022/01/21 12:23:28;;;;;;;4.38;1.75;;;2.90;99.90;;;;;;5020329;28;20040;-84
2022/01/21 12:26:08;;;;;;;3.90;1.60;;;2.80;99.90;;;;;;5032273;28;20131;-84
2022/01/21 12:28:36;;;;;;;8.02;1.73;;;2.80;99.90;;;;;;5031978;28;20033;-84
2022/01/21 12:31:06;;;;;;;3.90;1.58;;;2.80;99.90;;;;;;5032382;28;20061;-84
2022/01/21 12:34:09;;;;;;;5.93;1.85;;;2.80;99.90;;;;;;5048164;28;20024;-84
2022/01/21 12:36:41;;;;;;;10.70;1.52;;;2.80;99.90;;;;;;5011313;28;20051;-84
2022/01/21 12:39:46;;;;;;;9.57;1.92;;;2.80;99.90;;;;;;5038322;28;20047;-84
2022/01/21 12:42:20;;;;;;;5.70;1.38;;;2.80;99.90;;;;;;5038341;28;20512;-84
2022/01/21 12:44:56;;;;;;;9.68;1.65;;;2.80;99.90;;;;;;5052006;28;20024;-84
2022/01/21 12:47:38;;;;;;;3.00;1.50;;;2.80;99.90;;;;;;5018621;28;20493;-84
2022/01/21 12:50:24;;;;;;;6.97;1.67;;;2.80;99.90;;;;;;5017103;28;20107;-84
2022/01/21 12:52:56;;;;;;;7.60;1.60;;;2.90;99.90;;;;;;5031760;28;20444;-84
2022/01/21 12:58:13;;;;;;;3.90;1.30;;;2.90;99.90;;;;;;5051506;28;20398;-84
2022/01/21 13:00:39;;;;;;;5.53;1.50;;;3.00;99.90;;;;;;5035580;28;20032;-84
2022/01/21 13:03:22;;;;;;;8.05;1.95;;;3.20;99.90;;;;;;5051653;28;20028;-84
2022/01/21 13:06:00;;;;;;;7.95;1.33;;;3.30;99.90;;;;;;5065765;28;20099;-84
2022/01/21 13:08:44;;;;;;;9.68;1.65;;;3.50;99.90;;;;;;5053602;28;20025;-84
2022/01/21 13:11:11;;;;;;;5.38;1.25;;;3.60;99.90;;;;;;5069106;28;20054;-84
2022/01/21 13:13:53;;;;;;;8.48;1.25;;;3.70;99.90;;;;;;5034493;28;20477;-84
2022/01/21 13:16:30;;;;;;;3.88;1.73;;;3.80;99.90;;;;;;5069802;28;20029;-84
2022/01/21 13:19:08;;;;;;;7.05;1.77;;;3.90;99.90;;;;;;5027143;28;20025;-84
2022/01/21 13:21:44;;;;;;;6.63;1.33;;;3.90;99.90;;;;;;5015245;28;20052;-84
2022/01/21 13:24:22;;;;;;;4.90;1.42;;;3.90;99.90;;;;;;5048890;28;20041;-84
2022/01/21 13:26:51;;;;;;;4.78;1.35;;;3.90;99.90;;;;;;5033044;28;20029;-83
2022/01/21 13:29:17;;;;;;;2.83;1.50;;;3.90;99.90;;;;;;5060515;28;20465;-84
2022/01/21 13:31:46;;;;;;;6.15;1.30;;;3.80;99.90;;;;;;5051048;28;20111;-84
2022/01/21 13:34:15;;;;;;;3.28;1.10;;;3.80;99.90;;;;;;5044101;28;20086;-84
2022/01/21 13:36:45;;;;;;;7.78;1.20;;;3.70;99.90;;;;;;5048781;28;20516;-85
2022/01/21 13:39:16;;;;;;;7.07;1.08;;;3.60;99.90;;;;;;5040788;28;20394;-84
2022/01/21 13:42:05;;;;;;;2.25;1.00;;;3.60;99.90;;;;;;5051779;28;20029;-85
2022/01/21 13:44:34;;;;;;;2.33;0.80;;;3.50;99.90;;;;;;5052381;28;20666;-85
2022/01/21 13:47:02;;;;;;;3.75;1.08;;;3.40;99.90;;;;;;5069387;28;20506;-84
2022/01/21 13:49:29;;;;;;;2.72;0.77;;;3.40;99.90;;;;;;5034778;28;20041;-84
2022/01/21 13:52:03;;;;;;;1.20;0.57;;;3.40;99.90;;;;;;5034257;28;20389;-84
2022/01/21 13:54:45;;;;;;;3.17;1.42;;;3.50;99.90;;;;;;5032415;28;20059;-84
2022/01/21 13:57:25;;;;;;;3.58;0.90;;;3.50;99.90;;;;;;5048986;28;20345;-85